Belen, NM

6:19 AM MST on March 01, 2015 (GMT -0700)
MesoWest LOS LUNAS PMC NM US SCAN | Change Station
CLOSE
Current Station
Personal Weather Station
Location: Tome, NM
Elevation: 4846 ft
Nearby Weather Stations

Elev 4846 ft 34.77 °N, 106.76 °W | Updated 38 days ago

Overcast
Overcast
38 °F
Feels Like 32 °F
N
8
Wind Variable Wind from South
Gusts 9 mph

Today
High -- | Low -- °F
--% Chance of Precip.
Yesterday
High -- | Low -- °F
Precip. -- in
6:36 AM 6:02 PM
Waxing Gibbous, 85% visible
Pressure 30.08 in
Visibility 10.0 miles
Clouds Mostly Cloudy 5000 ft
Overcast 7000 ft
Windchill 32 °F
Dew Point 36 °F
Humidity 87%
Rainfall -999.00 in
Snow Depth Not available.
UV 0 out of 12
Pollen 5.50 out of 12
Air Quality Not available.
Flu Activity Not available.
METAR KE80 011315Z AUTO 00000KT 10SM BKN050 OVC070 01/00 A3008 RMK AO2 T00100001

More Conditions Fewer Conditions

Pressure 30.08 in
Visibility 10.0 miles
Clouds Mostly Cloudy 5000 ft
Overcast 7000 ft
Windchill 32 °F
Dew Point 36 °F
Humidity 87%
Rainfall -999.00 in
Snow Depth Not available.
UV 0 out of 12
Pollen 5.50 out of 12
Air Quality Not available.
Flu Activity Not available.
METAR KE80 011315Z AUTO 00000KT 10SM BKN050 OVC070 01/00 A3008 RMK AO2 T00100001

More Conditions Fewer Conditions

10-Day Weather Forecast

Almanac

Astronomy

Mar. 01, 2015 Rise Set
Actual Time
Civil Twilight
Nautical Twilight
Astronomical Twilight
Moon
Length of Visible Light
Length of Day
Tomorrow will be .
, % of the Moon is Illuminated

Today's Extremes

State Highs State Lows

Community

WunderPhotos

Upload Photos

1,801,374 photos uploaded!

WunderBlogs® & News

Nearby

Air Quality

  Air Quality AQ Index Pollutant
Not available.

Snow Depth

Station Depth Elevation

Earthquake Activity

City Distance Mag. Time & Date
Minimum magnitude displayed is 2.5.

Coastal Water Temperatures

Place Temperature

Nearby Weather Stations